createdAt,value
2023-04-20T00:01:48.623Z,84.06
2023-04-20T00:04:16.941Z,83.70
2023-04-20T00:06:45.685Z,84.02
2023-04-20T00:09:15.686Z,83.65
2023-04-20T00:11:44.062Z,84.79
2023-04-20T00:14:11.960Z,84.28
2023-04-20T00:16:40.089Z,84.75
2023-04-20T00:19:08.510Z,84.71
2023-04-20T00:21:36.622Z,84.23
2023-04-20T00:24:04.846Z,84.33
2023-04-20T00:26:33.264Z,84.55
2023-04-20T00:29:01.454Z,84.03
2023-04-20T00:31:29.548Z,84.16
2023-04-20T00:33:57.702Z,83.17
2023-04-20T00:36:25.573Z,83.29
2023-04-20T00:38:53.355Z,82.37
2023-04-20T00:41:22.308Z,83.26
2023-04-20T00:43:54.288Z,83.52
2023-04-20T00:46:23.221Z,83.77
2023-04-20T00:48:52.723Z,83.84
2023-04-20T00:55:51.931Z,84.00
2023-04-20T00:58:19.855Z,84.50
2023-04-20T01:00:47.878Z,83.69
2023-04-20T01:03:18.224Z,83.98
2023-04-20T01:05:49.864Z,83.90
2023-04-20T01:08:17.708Z,83.74
2023-04-20T01:10:46.378Z,83.91
2023-04-20T01:13:14.293Z,84.49
2023-04-20T01:15:42.279Z,84.21
2023-04-20T01:18:10.079Z,84.96
2023-04-20T01:20:39.341Z,85.14
2023-04-20T01:23:07.346Z,85.10
2023-04-20T01:25:35.134Z,84.42
2023-04-20T01:28:03.304Z,83.94
2023-04-20T01:30:32.993Z,84.00
2023-04-20T01:33:00.903Z,83.73
2023-04-20T01:35:28.834Z,84.70
2023-04-20T01:37:56.812Z,84.57
2023-04-20T01:40:25.469Z,84.53
2023-04-20T01:42:53.478Z,84.54
2023-04-20T01:45:23.663Z,84.10
2023-04-20T01:47:52.092Z,83.90
2023-04-20T01:50:19.961Z,84.45
2023-04-20T01:52:47.784Z,84.80
2023-04-20T01:55:19.588Z,84.61
2023-04-20T01:57:48.115Z,83.82
2023-04-20T02:00:16.522Z,83.68
2023-04-20T02:02:45.077Z,82.81
2023-04-20T02:05:13.254Z,82.53
2023-04-20T02:07:41.392Z,81.21
2023-04-20T02:10:09.778Z,80.90
2023-04-20T02:12:37.699Z,81.37
2023-04-20T02:15:07.057Z,79.68
2023-04-20T02:17:37.219Z,78.51
2023-04-20T02:20:12.710Z,78.95
2023-04-20T02:22:40.738Z,79.06
2023-04-20T02:25:09.969Z,78.37
2023-04-20T02:27:38.587Z,78.76
2023-04-20T02:30:07.033Z,78.77
2023-04-20T02:32:35.788Z,78.00
2023-04-20T02:35:07.187Z,78.80
2023-04-20T02:37:35.203Z,78.13
2023-04-20T02:40:03.076Z,78.87
2023-04-20T02:42:31.179Z,78.38
2023-04-20T02:45:01.490Z,77.94
2023-04-20T02:47:29.530Z,77.55
2023-04-20T02:49:57.639Z,77.76
2023-04-20T02:55:33.191Z,78.45
2023-04-20T02:58:07.241Z,79.16
2023-04-20T03:01:01.962Z,78.87
2023-04-20T03:03:31.165Z,78.67
2023-04-20T03:05:59.683Z,79.78
2023-04-20T03:08:28.242Z,80.00
2023-04-20T03:10:58.939Z,79.74
2023-04-20T03:13:26.838Z,79.59
2023-04-20T03:16:02.166Z,79.73
2023-04-20T03:18:35.398Z,79.45
2023-04-20T03:21:03.420Z,80.22
2023-04-20T03:23:32.572Z,80.06
2023-04-20T03:26:02.393Z,80.37
2023-04-20T03:28:42.517Z,80.95
2023-04-20T03:31:13.908Z,81.79
2023-04-20T03:33:41.911Z,81.60
2023-04-20T03:36:11.552Z,80.97
2023-04-20T03:38:39.617Z,80.88
2023-04-20T03:41:08.401Z,80.69
2023-04-20T03:43:36.481Z,80.39
2023-04-20T03:46:04.784Z,80.32
2023-04-20T03:48:33.501Z,80.98
2023-04-20T03:51:01.742Z,81.29
2023-04-20T03:53:29.742Z,81.25
2023-04-20T03:55:58.354Z,80.73
2023-04-20T03:58:27.141Z,80.70
2023-04-20T04:01:11.248Z,81.44
2023-04-20T04:03:42.883Z,80.80
2023-04-20T04:06:12.564Z,81.09
2023-04-20T04:08:41.496Z,81.04
2023-04-20T04:11:09.766Z,81.11
2023-04-20T04:13:37.753Z,81.07
2023-04-20T04:16:08.328Z,80.83
2023-04-20T04:18:36.890Z,80.40
2023-04-20T04:21:10.960Z,80.47
2023-04-20T04:23:42.708Z,80.38
2023-04-20T04:26:39.899Z,81.44
2023-04-20T04:29:09.247Z,81.44
2023-04-20T04:31:37.694Z,81.71
2023-04-20T04:34:13.984Z,81.69
2023-04-20T04:36:48.288Z,82.25
2023-04-20T04:39:20.060Z,81.59
2023-04-20T04:42:04.823Z,81.49
2023-04-20T04:44:42.091Z,80.81
2023-04-20T04:47:14.554Z,80.04
2023-04-20T04:49:42.952Z,79.76
2023-04-20T04:52:10.878Z,81.48
2023-04-20T04:54:39.257Z,80.15
2023-04-20T04:57:07.568Z,80.93
2023-04-20T04:59:35.588Z,80.51
2023-04-20T05:02:03.620Z,80.50
2023-04-20T05:04:32.043Z,80.33
2023-04-20T05:07:00.086Z,80.60
2023-04-20T05:09:33.658Z,81.51
2023-04-20T05:12:03.306Z,80.91
2023-04-20T05:14:32.411Z,81.39
2023-04-20T05:17:00.627Z,80.80
2023-04-20T05:19:28.455Z,81.03
2023-04-20T05:21:56.557Z,81.08
2023-04-20T05:24:24.466Z,80.93
2023-04-20T05:26:52.449Z,80.84
2023-04-20T05:29:20.596Z,80.73
2023-04-20T05:31:48.654Z,80.22
2023-04-20T05:34:16.847Z,80.04
2023-04-20T05:36:45.100Z,80.49
2023-04-20T05:39:13.143Z,80.07
2023-04-20T05:41:41.144Z,77.47
2023-04-20T05:44:09.084Z,77.31
2023-04-20T05:46:37.015Z,75.89
2023-04-20T05:49:05.407Z,74.00
2023-04-20T05:51:34.189Z,74.53
2023-04-20T05:54:02.304Z,72.80
2023-04-20T05:56:30.528Z,71.46
2023-04-20T05:59:00.250Z,71.89
2023-04-20T06:01:28.399Z,71.56
2023-04-20T06:03:56.848Z,72.10
2023-04-20T06:06:25.166Z,72.21
2023-04-20T06:08:53.376Z,71.31
2023-04-20T06:11:21.280Z,70.38
2023-04-20T06:13:49.238Z,69.56
2023-04-20T06:16:17.158Z,68.63
2023-04-20T06:18:45.133Z,69.04
2023-04-20T06:21:13.190Z,68.26
2023-04-20T06:23:41.610Z,68.16
2023-04-20T06:26:10.519Z,68.53
2023-04-20T06:28:38.685Z,68.62
2023-04-20T06:31:07.006Z,70.17
2023-04-20T06:33:35.156Z,69.86
2023-04-20T06:36:03.579Z,69.51
2023-04-20T06:38:31.499Z,70.03
2023-04-20T06:41:02.330Z,70.05
2023-04-20T06:43:31.022Z,70.55
2023-04-20T06:45:58.940Z,70.11
2023-04-20T06:48:31.355Z,70.88
2023-04-20T06:51:01.506Z,71.33
2023-04-20T06:53:29.538Z,71.37
2023-04-20T06:55:57.955Z,70.30
2023-04-20T06:58:25.988Z,70.55
2023-04-20T07:00:53.954Z,70.14
2023-04-20T07:03:22.242Z,68.89
2023-04-20T07:05:50.195Z,69.13
2023-04-20T07:08:18.221Z,68.91
2023-04-20T07:10:46.226Z,69.37
2023-04-20T07:13:14.280Z,70.07
2023-04-20T07:15:43.873Z,68.84
2023-04-20T07:18:12.251Z,69.09
2023-04-20T07:20:40.586Z,68.50
2023-04-20T07:23:08.835Z,69.35
2023-04-20T07:25:36.763Z,68.70
2023-04-20T07:28:04.759Z,68.60
2023-04-20T07:30:32.848Z,68.67
2023-04-20T07:33:01.130Z,68.18
2023-04-20T07:35:29.046Z,68.07
2023-04-20T07:37:57.157Z,68.44
2023-04-20T07:40:25.129Z,67.04
2023-04-20T07:42:53.260Z,66.35
2023-04-20T07:45:23.188Z,66.37
2023-04-20T07:47:52.716Z,66.42
2023-04-20T07:50:21.960Z,65.75
2023-04-20T07:52:49.870Z,63.82
2023-04-20T07:55:18.156Z,62.11
2023-04-20T07:57:46.142Z,62.13
2023-04-20T08:00:15.148Z,60.83
2023-04-20T08:02:45.793Z,60.93
2023-04-20T08:05:14.106Z,61.61
2023-04-20T08:07:42.329Z,61.05
2023-04-20T08:10:10.801Z,59.50
2023-04-20T08:12:40.361Z,59.67
2023-04-20T08:15:09.442Z,59.94
2023-04-20T08:17:37.444Z,60.71
2023-04-20T08:20:06.546Z,60.85
2023-04-20T08:22:34.686Z,61.57
2023-04-20T08:25:02.713Z,61.98
2023-04-20T08:27:32.724Z,63.03
2023-04-20T08:30:00.953Z,62.01
2023-04-20T08:32:28.968Z,62.13
2023-04-20T08:34:57.271Z,62.12
2023-04-20T08:37:26.219Z,62.22
2023-04-20T08:39:54.062Z,63.22
2023-04-20T08:42:22.240Z,62.84
2023-04-20T08:44:50.358Z,63.39
2023-04-20T08:47:18.286Z,61.98
2023-04-20T08:49:49.549Z,61.68
2023-04-20T08:52:17.529Z,61.93
2023-04-20T08:54:55.917Z,61.95
2023-04-20T08:57:26.613Z,61.83
2023-04-20T08:59:54.746Z,62.33
2023-04-20T09:02:22.952Z,62.39
2023-04-20T09:05:08.167Z,61.82
2023-04-20T09:07:36.365Z,61.60
2023-04-20T09:10:05.120Z,61.48
2023-04-20T09:12:43.412Z,61.82
2023-04-20T09:15:11.925Z,62.71
2023-04-20T09:17:41.541Z,63.23
2023-04-20T09:20:11.582Z,63.15
2023-04-20T09:22:41.947Z,63.56
2023-04-20T09:25:17.321Z,62.69
2023-04-20T09:28:05.962Z,63.40
2023-04-20T09:30:38.681Z,63.85
2023-04-20T09:33:12.653Z,64.51
2023-04-20T09:35:42.504Z,64.17
2023-04-20T09:38:15.303Z,63.60
2023-04-20T09:40:43.376Z,64.17
2023-04-20T09:43:18.693Z,60.98
2023-04-20T09:45:46.747Z,59.82
2023-04-20T09:48:19.476Z,57.55
2023-04-20T09:50:50.636Z,54.64
2023-04-20T09:53:20.125Z,54.95
2023-04-20T09:55:50.232Z,53.90
2023-04-20T09:58:20.633Z,51.98
2023-04-20T10:00:49.414Z,51.82
2023-04-20T10:03:19.175Z,50.61
2023-04-20T10:05:47.449Z,50.40
2023-04-20T10:08:15.698Z,49.78
2023-04-20T10:10:48.661Z,48.92
2023-04-20T10:13:19.851Z,47.47
2023-04-20T10:15:47.942Z,47.59
2023-04-20T10:18:18.218Z,48.43
2023-04-20T10:20:47.315Z,48.00
2023-04-20T10:23:16.653Z,48.31
2023-04-20T10:26:01.329Z,48.12
2023-04-20T10:28:47.963Z,47.49
2023-04-20T10:31:17.332Z,48.68
2023-04-20T10:33:56.130Z,49.24
2023-04-20T10:36:34.111Z,49.20
2023-04-20T10:39:14.950Z,48.37
2023-04-20T10:42:10.892Z,48.30
2023-04-20T10:44:52.096Z,48.46
2023-04-20T10:48:04.961Z,47.57
2023-04-20T10:50:33.027Z,47.22
2023-04-20T10:53:01.015Z,44.72
2023-04-20T10:55:28.944Z,45.05
2023-04-20T10:57:57.321Z,46.74
2023-04-20T11:00:28.177Z,45.45
2023-04-20T11:02:57.574Z,44.93
2023-04-20T11:05:30.360Z,42.83
2023-04-20T11:08:00.042Z,42.01
2023-04-20T11:10:42.674Z,42.59
2023-04-20T11:13:25.760Z,40.35
2023-04-20T11:15:53.988Z,41.08
2023-04-20T11:18:22.026Z,41.47
2023-04-20T11:20:55.141Z,42.48
2023-04-20T11:23:25.012Z,42.68
2023-04-20T11:25:54.749Z,42.76
2023-04-20T11:28:23.185Z,42.94
2023-04-20T11:30:51.509Z,42.85
2023-04-20T11:33:29.657Z,40.80
2023-04-20T11:35:59.005Z,41.31
2023-04-20T11:38:34.702Z,41.49
2023-04-20T11:41:07.096Z,42.45
2023-04-20T11:43:36.394Z,42.63
2023-04-20T11:46:17.181Z,42.31
2023-04-20T11:48:45.652Z,41.58
2023-04-20T11:51:14.605Z,40.37
2023-04-20T11:53:42.586Z,42.01
2023-04-20T11:56:10.892Z,41.93
2023-04-20T11:58:38.866Z,43.74
2023-04-20T12:01:07.142Z,44.46
2023-04-20T12:03:35.254Z,43.82
2023-04-20T12:06:03.292Z,44.04
2023-04-20T12:08:31.952Z,44.41
2023-04-20T12:11:00.039Z,45.12
2023-04-20T12:13:27.968Z,44.60
2023-04-20T12:20:12.522Z,44.17
2023-04-20T12:22:41.212Z,46.03
2023-04-20T12:28:58.891Z,48.58
2023-04-20T12:31:27.063Z,47.43
2023-04-20T12:33:55.239Z,46.53
2023-04-20T12:36:23.233Z,47.39
2023-04-20T12:38:52.744Z,46.49
2023-04-20T12:41:23.112Z,46.17
2023-04-20T12:43:51.644Z,46.33
2023-04-20T12:46:20.487Z,47.18
2023-04-20T12:48:48.632Z,46.97
2023-04-20T12:51:17.066Z,47.58
2023-04-20T12:53:45.040Z,46.67
2023-04-20T12:56:13.196Z,47.13
2023-04-20T12:58:41.459Z,47.81
2023-04-20T13:01:10.133Z,48.14
2023-04-20T13:03:38.218Z,48.80
2023-04-20T13:06:06.594Z,50.17
2023-04-20T13:08:37.103Z,54.04
2023-04-20T13:11:05.391Z,61.11
2023-04-20T13:13:33.299Z,65.43
2023-04-20T13:16:01.474Z,66.94
2023-04-20T13:18:29.567Z,69.43
2023-04-20T13:20:57.771Z,69.76
2023-04-20T13:23:25.895Z,70.22
2023-04-20T13:25:54.264Z,72.01
2023-04-20T13:28:22.099Z,73.25
2023-04-20T13:30:50.655Z,73.03
2023-04-20T13:33:18.646Z,74.14
2023-04-20T13:35:47.300Z,76.75
2023-04-20T13:38:15.513Z,77.03
2023-04-20T13:40:46.806Z,80.03
2023-04-20T13:43:15.317Z,79.51
2023-04-20T13:45:43.823Z,80.47
2023-04-20T13:48:12.190Z,78.26
2023-04-20T13:50:40.443Z,75.66
2023-04-20T13:53:08.708Z,77.65
2023-04-20T13:55:36.710Z,79.35
2023-04-20T13:58:04.690Z,79.70
2023-04-20T14:00:34.675Z,77.02
2023-04-20T14:03:03.171Z,76.11
2023-04-20T14:05:31.246Z,74.92
2023-04-20T14:08:01.934Z,75.76
2023-04-20T14:10:30.052Z,75.43
2023-04-20T14:12:57.975Z,76.45
2023-04-20T14:15:26.616Z,74.40
2023-04-20T14:17:54.733Z,74.04
2023-04-20T14:20:23.089Z,68.20
2023-04-20T14:22:51.144Z,70.53
2023-04-20T14:25:19.629Z,68.14
2023-04-20T14:27:48.128Z,68.56
2023-04-20T14:30:16.451Z,67.11
2023-04-20T14:32:56.472Z,70.95
2023-04-20T14:35:26.505Z,70.08
2023-04-20T14:37:54.864Z,66.82
2023-04-20T14:40:23.099Z,70.38
2023-04-20T14:42:51.397Z,72.16
2023-04-20T14:45:19.850Z,69.34
2023-04-20T14:47:53.664Z,66.68
2023-04-20T14:50:23.178Z,69.25
2023-04-20T14:52:53.127Z,67.89
2023-04-20T14:55:26.334Z,69.28
2023-04-20T14:57:57.450Z,69.37
2023-04-20T15:00:28.602Z,70.31
2023-04-20T15:02:57.608Z,71.72
2023-04-20T15:05:27.918Z,68.73
2023-04-20T15:07:58.227Z,70.57
2023-04-20T15:10:27.064Z,71.12
2023-04-20T15:12:55.090Z,72.03
2023-04-20T15:15:24.052Z,72.48
2023-04-20T15:17:54.213Z,71.52
2023-04-20T15:20:22.838Z,71.41
2023-04-20T15:22:51.333Z,66.58
2023-04-20T15:25:22.177Z,67.38
2023-04-20T15:27:50.615Z,70.38
2023-04-20T15:30:19.220Z,69.90
2023-04-20T15:32:47.818Z,67.86
2023-04-20T15:35:15.981Z,67.11
2023-04-20T15:37:46.653Z,65.80
2023-04-20T15:40:17.313Z,64.43
2023-04-20T15:42:45.952Z,64.68
2023-04-20T15:45:14.412Z,64.63
2023-04-20T15:47:42.778Z,64.51
2023-04-20T15:50:11.984Z,62.72
2023-04-20T15:52:40.614Z,62.98
2023-04-20T15:55:10.429Z,63.47
2023-04-20T15:57:38.802Z,64.54
2023-04-20T16:00:10.128Z,63.24
2023-04-20T16:02:40.342Z,64.56
2023-04-20T16:05:09.701Z,65.98
2023-04-20T16:07:38.191Z,65.36
2023-04-20T16:10:07.592Z,65.93
2023-04-20T16:12:36.064Z,67.48
2023-04-20T16:15:05.416Z,68.16
2023-04-20T16:17:34.379Z,68.67
2023-04-20T16:20:02.666Z,68.93
2023-04-20T16:22:31.357Z,69.88
2023-04-20T16:24:59.893Z,71.00
2023-04-20T16:27:28.515Z,71.55
2023-04-20T16:29:56.575Z,71.88
2023-04-20T16:32:25.070Z,72.38
2023-04-20T16:34:53.662Z,72.08
2023-04-20T16:37:22.008Z,72.92
2023-04-20T16:39:50.815Z,73.42
2023-04-20T16:42:19.124Z,73.59
2023-04-20T16:44:47.864Z,74.98
2023-04-20T16:47:16.498Z,75.98
2023-04-20T16:49:44.887Z,76.22
2023-04-20T16:52:13.758Z,76.18
2023-04-20T16:54:42.156Z,76.26
2023-04-20T16:57:11.384Z,76.01
2023-04-20T16:59:39.716Z,76.44
2023-04-20T17:02:08.537Z,77.25
2023-04-20T17:04:36.626Z,76.65
2023-04-20T17:07:05.069Z,76.53
2023-04-20T17:09:33.945Z,77.96
2023-04-20T17:12:02.520Z,78.28
2023-04-20T17:14:32.713Z,78.40
2023-04-20T17:17:01.394Z,79.80
2023-04-20T17:19:31.201Z,79.36
2023-04-20T17:22:00.237Z,79.52
2023-04-20T17:24:28.749Z,79.66
2023-04-20T17:26:57.364Z,79.94
2023-04-20T17:29:26.001Z,80.79
2023-04-20T17:31:55.662Z,80.37
2023-04-20T17:34:24.100Z,80.88
2023-04-20T17:36:53.051Z,81.12
2023-04-20T17:39:22.065Z,80.68
2023-04-20T17:41:50.623Z,81.21
2023-04-20T17:44:19.192Z,80.68
2023-04-20T17:46:47.706Z,80.95
2023-04-20T17:49:16.081Z,81.36
2023-04-20T17:51:44.554Z,81.06
2023-04-20T17:54:13.165Z,81.75
2023-04-20T17:56:42.736Z,81.39
2023-04-20T17:59:12.533Z,81.54
2023-04-20T18:01:41.584Z,81.62
2023-04-20T18:04:10.353Z,82.24
2023-04-20T18:06:38.965Z,81.69
2023-04-20T18:09:07.656Z,80.95
2023-04-20T18:11:36.132Z,82.06
2023-04-20T18:14:04.643Z,81.57
2023-04-20T18:16:33.931Z,81.23
2023-04-20T18:19:02.330Z,81.46
2023-04-20T18:21:31.827Z,82.01
2023-04-20T18:24:00.453Z,81.89
2023-04-20T18:26:29.155Z,82.16
2023-04-20T18:28:57.778Z,81.54
2023-04-20T18:31:26.449Z,81.67
2023-04-20T18:33:54.847Z,82.22
2023-04-20T18:36:23.187Z,81.85
2023-04-20T18:38:51.846Z,81.60
2023-04-20T18:41:20.320Z,81.93
2023-04-20T18:43:49.980Z,82.14
2023-04-20T18:46:18.536Z,82.38
2023-04-20T18:48:46.858Z,82.65
2023-04-20T18:51:15.497Z,82.54
2023-04-20T18:53:44.034Z,82.80
2023-04-20T18:56:12.695Z,82.98
2023-04-20T18:58:41.883Z,81.92
2023-04-20T19:01:11.263Z,82.03
2023-04-20T19:03:39.913Z,82.79
2023-04-20T19:06:08.281Z,83.26
2023-04-20T19:08:36.771Z,83.21
2023-04-20T19:11:07.630Z,82.95
2023-04-20T19:13:36.037Z,82.53
2023-04-20T19:16:05.135Z,82.76
2023-04-20T19:18:33.628Z,82.79
2023-04-20T19:21:02.146Z,82.75
2023-04-20T19:23:30.980Z,82.41
2023-04-20T19:25:59.437Z,82.40
2023-04-20T19:28:28.089Z,82.90
2023-04-20T19:30:57.881Z,82.46
2023-04-20T19:33:26.356Z,82.91
2023-04-20T19:35:54.848Z,82.54
2023-04-20T19:38:26.765Z,82.74
2023-04-20T19:40:55.585Z,82.84
2023-04-20T19:43:23.851Z,83.22
2023-04-20T19:45:52.672Z,82.84
2023-04-20T19:48:21.128Z,82.69
2023-04-20T19:50:51.586Z,83.08
2023-04-20T19:53:20.260Z,82.44
2023-04-20T19:55:48.960Z,82.47
2023-04-20T19:58:17.403Z,82.74
2023-04-20T20:00:46.262Z,82.94
2023-04-20T20:03:17.821Z,82.85
2023-04-20T20:05:46.412Z,83.71
2023-04-20T20:08:14.730Z,83.91
2023-04-20T20:10:43.477Z,83.81
2023-04-20T20:13:11.973Z,82.66
2023-04-20T20:15:40.878Z,82.59
2023-04-20T20:18:11.005Z,81.58
2023-04-20T20:20:39.676Z,81.69
2023-04-20T20:23:08.215Z,82.04
2023-04-20T20:25:36.702Z,82.46
2023-04-20T20:28:05.165Z,82.24
2023-04-20T20:30:33.567Z,83.16
2023-04-20T20:33:01.911Z,83.71
2023-04-20T20:35:33.657Z,83.81
2023-04-20T20:38:06.537Z,82.90
2023-04-20T20:40:36.016Z,82.87
2023-04-20T20:43:04.333Z,82.64
2023-04-20T20:45:32.672Z,82.86
2023-04-20T20:48:01.289Z,82.34
2023-04-20T20:50:29.698Z,81.90
2023-04-20T20:52:58.071Z,82.10
2023-04-20T20:55:26.430Z,82.64
2023-04-20T20:57:54.505Z,83.54
2023-04-20T21:00:22.823Z,83.36
2023-04-20T21:02:51.371Z,83.76
2023-04-20T21:05:19.736Z,83.87
2023-04-20T21:07:47.760Z,83.05
2023-04-20T21:10:15.732Z,83.07
2023-04-20T21:12:44.075Z,83.36
2023-04-20T21:15:12.521Z,83.81
2023-04-20T21:17:40.821Z,83.33
2023-04-20T21:20:10.021Z,83.38
2023-04-20T21:22:38.061Z,83.25
2023-04-20T21:25:06.720Z,83.41
2023-04-20T21:27:34.761Z,83.28
2023-04-20T21:32:47.536Z,84.09
2023-04-20T21:35:15.372Z,83.67
2023-04-20T21:37:43.962Z,84.08
2023-04-20T21:40:12.445Z,84.06
2023-04-20T21:42:40.594Z,84.38
2023-04-20T21:45:09.148Z,84.06
2023-04-20T21:47:37.232Z,83.33
2023-04-20T21:50:06.507Z,83.61
2023-04-20T21:52:34.575Z,84.05
2023-04-20T21:55:02.788Z,84.00
2023-04-20T21:57:30.849Z,83.46
2023-04-20T21:59:58.754Z,83.28
2023-04-20T22:02:26.935Z,83.38
2023-04-20T22:04:56.466Z,83.18
2023-04-20T22:07:24.810Z,83.16
2023-04-20T22:09:52.740Z,83.13
2023-04-20T22:12:32.269Z,83.63
2023-04-20T22:15:05.591Z,83.38
2023-04-20T22:17:33.588Z,83.19
2023-04-20T22:20:02.176Z,82.82
2023-04-20T22:22:30.073Z,82.55
2023-04-20T22:24:58.270Z,82.67
2023-04-20T22:27:26.768Z,82.78
2023-04-20T22:29:54.784Z,83.24
2023-04-20T22:32:22.769Z,83.53
2023-04-20T22:34:51.104Z,83.70
2023-04-20T22:37:19.319Z,84.27
2023-04-20T22:39:47.372Z,83.16
2023-04-20T22:42:15.347Z,82.00
2023-04-20T22:44:43.554Z,82.48
2023-04-20T22:47:11.663Z,82.82
2023-04-20T22:49:39.610Z,82.34
2023-04-20T22:52:09.861Z,82.42
2023-04-20T22:54:37.911Z,82.37
2023-04-20T22:57:05.803Z,82.70
2023-04-20T22:59:33.749Z,83.25
2023-04-20T23:02:01.724Z,83.04
2023-04-20T23:04:29.992Z,83.29
2023-04-20T23:06:57.948Z,83.31
2023-04-20T23:28:37.817Z,88.30
2023-04-20T23:31:05.818Z,87.53
2023-04-20T23:33:33.652Z,85.86
2023-04-20T23:36:01.634Z,85.77
2023-04-20T23:38:29.495Z,85.87
2023-04-20T23:40:57.496Z,85.88
2023-04-20T23:43:25.270Z,86.49
2023-04-20T23:45:53.581Z,86.79
2023-04-20T23:48:21.546Z,85.37
2023-04-20T23:50:50.081Z,84.32
2023-04-20T23:53:17.913Z,84.28
2023-04-20T23:55:51.904Z,84.17
2023-04-20T23:58:19.819Z,84.78
